Terminal Aerodrome Forecast
Issued by NWS

Home | Current Version | Previous Version | Text Only | Print | Product List | Glossary On
Versions: 1 2 3 4 5 6 7 8 9 10 11 12
162
FTUS43 KICT 201120
TAFRSL
TAF
KRSL 201120Z 2012/2112 17015G23KT P6SM BKN250 WS020/19045KT
     FM201400 17019G27KT P6SM BKN200
     FM201700 18027G36KT P6SM BKN120
     FM210500 18022G30KT P6SM BKN040
     FM210900 18025G33KT P6SM BKN025=

USA.gov is the U.S. government's official web portal to all federal, state and local government web resources and services.